Terminal Aerodrome Forecast
Issued by NWS

Home | Current Version | Previous Version | Text Only | Print | Product List | Glossary On
Versions: 1 2 3 4 5 6 7 8 9 10 11 12 13 14 15
041
FTUS44 KLIX 251720
TAFMCB
TAF
KMCB 251720Z 2518/2618 00000KT 5SM TSRA SCT030CB BKN200
     FM260000 VRB03KT P6SM VCTS SCT020CB BKN200
     FM260300 20004KT P6SM SCT010 BKN250
     FM261100 00000KT 3SM BR BKN010
     FM261200 00000KT 2SM BR OVC003
     FM261400 00000KT 5SM SHRA VCTS SCT010CB BKN120=

USA.gov is the U.S. government's official web portal to all federal, state and local government web resources and services.